Terminal Aerodrome Forecast
Issued by NWS

Home | Current Version | Previous Version | Graphics & Text | Print | Product List | Glossary On
Versions: 1 2 3 4 5 6 7 8 9 10 11 12 13 14 15 16 17 18 19
737
FTUS43 KMPX 220955 AAA
TAFRNH
TAF AMD
KRNH 220955Z 2210/2306 VRB03KT 6SM BR SCT010 BKN150
      TEMPO 2211/2214 VRB03KT 2SM BR BKN010
     FM221400 VRB04KT 6SM BR BKN015
     FM221600 28006KT P6SM SCT012 BKN020
     FM222000 31010KT P6SM SCT110=

USA.gov is the U.S. government's official web portal to all federal, state and local government web resources and services.